Terminal Aerodrome Forecast
Issued by NWS Sioux Falls, SD

Home | Current Version | Previous Version | Text Only | Print | Product List | Glossary On
Versions: 1 2 3 4 5 6 7 8 9 10 11 12 13 14 15 16 17 18 19 20 21
000
FTUS43 KFSD 251700
TAFFSD
TAF
KFSD 251720Z 2518/2618 15008KT P6SM BKN025
     FM252000 33007KT P6SM BKN040
     FM260200 VRB04KT P6SM SKC
     FM261000 VRB03KT P6SM BKN120=

USA.gov is the U.S. government's official web portal to all federal, state and local government web resources and services.